Login to view products.
 
Friday, March 22, 2019 (10:05 UTC)
Al Bateen Executive Airport
ICAO: OMAD
IATA: AZI
  • METAR OMAD 221000Z 14008KT 090V170 CAVOK 32/06 Q1012 NOSIG=
  • TAF OMAD 220500Z 2206/2312 12011KT 8000 FEW045 PROB30 TEMPO 2207/2213 VRB18G30KT 4000 TSRA BLDU FEW040CB BECMG 2212/2214 05008KT PROB30 TEMPO 2221/2306 VRB20G35KT 3000 TSRA BLDU FEW040CB BECMG 2223/2301 15014KT=
D:\Input Parser\Destinations\Final\05\OMADL06120500272619300.txt
1